Watergap, Kentucky
Current Conditions -  °F | °C
As of 1:15 AM on Monday 26 Jan 2015 (Local Time) from KSJS Reporting Station
Overcast Overcast  
Wind Chill: 42°   Ceiling: 3300
Heat Index: 42°   Visibility: 10mi
Dew Point: 39°   Wind: 0mph
Humidity: 88%   Direction: NA
Pressure: 29.63"   Gusts: NA
Location:  37.6405°N, 82.8256°W
Report Text: KSJS 260615Z AUTO 00000KT 10SM SCT026 OVC033 06/04 A2963 RMK AO2 T00560037
Loading
Personal Weather Stations






























Interactive Weather Map New forecast layout! Learn more

10-Day Weather Forecast

Advertisements
Track Severe Weather on mobile